sensor_id;sensor_type;location;lat;lon;timestamp;pressure;altitude;pressure_sealevel;temperature;humidity
34742;BME280;20968;42.696;23.360;2022-10-18T00:01:46;96786.69;;;11.77;54.67
34742;BME280;20968;42.696;23.360;2022-10-18T00:04:11;96780.00;;;11.66;55.12
34742;BME280;20968;42.696;23.360;2022-10-18T00:06:37;96771.19;;;11.71;55.11
34742;BME280;20968;42.696;23.360;2022-10-18T00:09:02;96761.34;;;11.70;55.33
34742;BME280;20968;42.696;23.360;2022-10-18T00:11:28;96771.31;;;11.67;55.16
34742;BME280;20968;42.696;23.360;2022-10-18T00:13:55;96770.28;;;11.74;54.87
34742;BME280;20968;42.696;23.360;2022-10-18T00:16:20;96772.53;;;11.54;55.17
34742;BME280;20968;42.696;23.360;2022-10-18T00:18:46;96753.69;;;11.53;55.32
34742;BME280;20968;42.696;23.360;2022-10-18T00:21:21;96770.22;;;11.65;54.65
34742;BME280;20968;42.696;23.360;2022-10-18T00:23:51;96760.81;;;11.63;55.09
34742;BME280;20968;42.696;23.360;2022-10-18T00:26:20;96751.03;;;11.62;54.96
34742;BME280;20968;42.696;23.360;2022-10-18T00:28:50;96759.06;;;11.68;54.79
34742;BME280;20968;42.696;23.360;2022-10-18T00:31:22;96744.59;;;11.64;54.66
34742;BME280;20968;42.696;23.360;2022-10-18T00:33:53;96742.75;;;11.62;55.00
34742;BME280;20968;42.696;23.360;2022-10-18T00:36:20;96742.41;;;11.60;55.45
34742;BME280;20968;42.696;23.360;2022-10-18T00:38:46;96740.28;;;11.63;55.62
34742;BME280;20968;42.696;23.360;2022-10-18T00:41:16;96745.03;;;11.63;55.54
34742;BME280;20968;42.696;23.360;2022-10-18T00:46:39;96735.34;;;11.59;55.71
34742;BME280;20968;42.696;23.360;2022-10-18T00:49:09;96743.16;;;11.60;55.70
34742;BME280;20968;42.696;23.360;2022-10-18T00:51:40;96728.28;;;11.58;55.91
34742;BME280;20968;42.696;23.360;2022-10-18T00:54:08;96723.97;;;11.57;55.47
34742;BME280;20968;42.696;23.360;2022-10-18T00:56:34;96725.53;;;11.58;55.66
34742;BME280;20968;42.696;23.360;2022-10-18T00:59:00;96719.38;;;11.54;55.51
34742;BME280;20968;42.696;23.360;2022-10-18T01:01:25;96724.88;;;11.54;55.46
34742;BME280;20968;42.696;23.360;2022-10-18T01:03:51;96721.44;;;11.50;56.18
34742;BME280;20968;42.696;23.360;2022-10-18T01:06:18;96723.72;;;11.51;55.88
34742;BME280;20968;42.696;23.360;2022-10-18T01:22:23;96725.66;;;11.54;55.86
34742;BME280;20968;42.696;23.360;2022-10-18T01:27:56;96711.53;;;11.40;55.54
34742;BME280;20968;42.696;23.360;2022-10-18T01:33:13;96714.16;;;11.43;55.23
34742;BME280;20968;42.696;23.360;2022-10-18T01:35:46;96706.59;;;11.35;55.41
34742;BME280;20968;42.696;23.360;2022-10-18T01:38:14;96710.22;;;11.32;55.32
34742;BME280;20968;42.696;23.360;2022-10-18T01:40:43;96721.03;;;11.39;55.13
34742;BME280;20968;42.696;23.360;2022-10-18T01:43:11;96703.50;;;11.33;55.23
34742;BME280;20968;42.696;23.360;2022-10-18T01:45:39;96699.97;;;11.32;55.28
34742;BME280;20968;42.696;23.360;2022-10-18T01:48:05;96709.13;;;11.29;55.51
34742;BME280;20968;42.696;23.360;2022-10-18T01:50:33;96709.47;;;11.31;55.75
34742;BME280;20968;42.696;23.360;2022-10-18T01:52:59;96702.53;;;11.27;55.23
34742;BME280;20968;42.696;23.360;2022-10-18T01:55:39;96702.63;;;11.23;55.57
34742;BME280;20968;42.696;23.360;2022-10-18T01:58:30;96715.72;;;11.32;55.77
34742;BME280;20968;42.696;23.360;2022-10-18T02:01:08;96705.28;;;11.27;55.05
34742;BME280;20968;42.696;23.360;2022-10-18T02:03:42;96699.25;;;11.19;55.29
34742;BME280;20968;42.696;23.360;2022-10-18T02:06:31;96692.06;;;11.22;55.08
34742;BME280;20968;42.696;23.360;2022-10-18T02:09:12;96695.69;;;11.19;55.37
34742;BME280;20968;42.696;23.360;2022-10-18T02:11:42;96696.25;;;11.26;55.63
34742;BME280;20968;42.696;23.360;2022-10-18T02:14:11;96692.59;;;11.17;55.61
34742;BME280;20968;42.696;23.360;2022-10-18T02:16:50;96705.06;;;11.21;55.44
34742;BME280;20968;42.696;23.360;2022-10-18T02:21:51;96687.44;;;11.06;54.82
34742;BME280;20968;42.696;23.360;2022-10-18T02:24:18;96691.63;;;11.11;55.43
34742;BME280;20968;42.696;23.360;2022-10-18T02:26:45;96678.53;;;11.02;54.98
34742;BME280;20968;42.696;23.360;2022-10-18T02:29:14;96691.31;;;11.09;55.32
34742;BME280;20968;42.696;23.360;2022-10-18T02:31:48;96678.53;;;11.02;55.51
34742;BME280;20968;42.696;23.360;2022-10-18T02:36:51;96687.25;;;11.01;55.76
34742;BME280;20968;42.696;23.360;2022-10-18T02:39:22;96675.47;;;10.88;55.71
34742;BME280;20968;42.696;23.360;2022-10-18T02:41:49;96680.88;;;10.91;55.78
34742;BME280;20968;42.696;23.360;2022-10-18T02:44:14;96683.97;;;10.93;55.94
34742;BME280;20968;42.696;23.360;2022-10-18T02:46:39;96693.66;;;10.98;55.74
34742;BME280;20968;42.696;23.360;2022-10-18T02:49:05;96688.91;;;10.86;56.04
34742;BME280;20968;42.696;23.360;2022-10-18T02:51:31;96694.75;;;10.88;56.38
34742;BME280;20968;42.696;23.360;2022-10-18T02:53:56;96701.72;;;10.80;56.59
34742;BME280;20968;42.696;23.360;2022-10-18T02:56:21;96700.16;;;10.79;56.29
34742;BME280;20968;42.696;23.360;2022-10-18T02:58:47;96700.16;;;10.79;56.77
34742;BME280;20968;42.696;23.360;2022-10-18T03:01:12;96694.00;;;10.75;56.70
34742;BME280;20968;42.696;23.360;2022-10-18T03:03:38;96687.81;;;10.71;56.49
34742;BME280;20968;42.696;23.360;2022-10-18T03:06:03;96693.31;;;10.71;55.60
34742;BME280;20968;42.696;23.360;2022-10-18T03:08:29;96695.22;;;10.62;55.85
34742;BME280;20968;42.696;23.360;2022-10-18T03:10:54;96686.28;;;10.45;55.61
34742;BME280;20968;42.696;23.360;2022-10-18T03:13:20;96703.44;;;10.37;55.93
34742;BME280;20968;42.696;23.360;2022-10-18T03:15:46;96700.91;;;10.30;56.76
34742;BME280;20968;42.696;23.360;2022-10-18T03:18:12;96695.63;;;10.23;56.70
34742;BME280;20968;42.696;23.360;2022-10-18T03:20:38;96704.88;;;10.29;55.96
34742;BME280;20968;42.696;23.360;2022-10-18T03:23:03;96692.75;;;10.26;56.23
34742;BME280;20968;42.696;23.360;2022-10-18T03:25:28;96695.31;;;10.33;56.62
34742;BME280;20968;42.696;23.360;2022-10-18T03:27:54;96687.50;;;10.32;56.56
34742;BME280;20968;42.696;23.360;2022-10-18T03:30:19;96690.13;;;10.35;57.00
34742;BME280;20968;42.696;23.360;2022-10-18T03:32:45;96690.47;;;10.37;57.38
34742;BME280;20968;42.696;23.360;2022-10-18T03:35:10;96692.13;;;10.35;57.29
34742;BME280;20968;42.696;23.360;2022-10-18T03:37:36;96687.72;;;10.37;56.99
34742;BME280;20968;42.696;23.360;2022-10-18T03:40:02;96692.44;;;10.37;57.21
34742;BME280;20968;42.696;23.360;2022-10-18T03:42:28;96698.72;;;10.37;57.37
34742;BME280;20968;42.696;23.360;2022-10-18T03:44:53;96693.69;;;10.36;57.16
34742;BME280;20968;42.696;23.360;2022-10-18T03:47:19;96703.78;;;10.39;57.28
34742;BME280;20968;42.696;23.360;2022-10-18T03:49:44;96708.53;;;10.38;57.13
34742;BME280;20968;42.696;23.360;2022-10-18T03:52:10;96700.38;;;10.35;57.19
34742;BME280;20968;42.696;23.360;2022-10-18T03:54:35;96701.16;;;10.35;57.19
34742;BME280;20968;42.696;23.360;2022-10-18T03:57:00;96706.88;;;10.28;57.54
34742;BME280;20968;42.696;23.360;2022-10-18T03:59:26;96701.03;;;10.26;57.66
34742;BME280;20968;42.696;23.360;2022-10-18T04:01:51;96704.13;;;10.28;57.32
34742;BME280;20968;42.696;23.360;2022-10-18T04:04:17;96713.13;;;10.29;57.68
34742;BME280;20968;42.696;23.360;2022-10-18T04:06:42;96709.50;;;10.19;57.70
34742;BME280;20968;42.696;23.360;2022-10-18T04:09:08;96711.38;;;10.22;57.44
34742;BME280;20968;42.696;23.360;2022-10-18T04:11:34;96711.38;;;10.22;57.91
34742;BME280;20968;42.696;23.360;2022-10-18T04:14:00;96699.78;;;10.15;57.76
34742;BME280;20968;42.696;23.360;2022-10-18T04:16:25;96691.44;;;10.06;57.85
34742;BME280;20968;42.696;23.360;2022-10-18T04:18:50;96707.75;;;10.13;57.41
34742;BME280;20968;42.696;23.360;2022-10-18T04:21:16;96692.19;;;10.07;57.55
34742;BME280;20968;42.696;23.360;2022-10-18T04:23:41;96709.59;;;10.16;57.09
34742;BME280;20968;42.696;23.360;2022-10-18T04:26:07;96707.16;;;10.06;57.56
34742;BME280;20968;42.696;23.360;2022-10-18T04:28:33;96706.72;;;10.07;57.30
34742;BME280;20968;42.696;23.360;2022-10-18T04:30:59;96711.47;;;10.07;58.25
34742;BME280;20968;42.696;23.360;2022-10-18T04:33:25;96709.25;;;10.02;58.15
34742;BME280;20968;42.696;23.360;2022-10-18T04:35:51;96706.41;;;10.05;57.65
34742;BME280;20968;42.696;23.360;2022-10-18T04:38:17;96700.88;;;10.05;57.43
34742;BME280;20968;42.696;23.360;2022-10-18T04:40:43;96698.72;;;9.97;57.59
34742;BME280;20968;42.696;23.360;2022-10-18T04:43:14;96692.69;;;9.89;57.07
34742;BME280;20968;42.696;23.360;2022-10-18T04:45:46;96696.19;;;9.90;57.90
34742;BME280;20968;42.696;23.360;2022-10-18T04:48:19;96699.25;;;10.07;71.52
34742;BME280;20968;42.696;23.360;2022-10-18T04:50:47;96703.47;;;10.62;71.33
34742;BME280;20968;42.696;23.360;2022-10-18T04:53:15;96700.13;;;11.04;71.14
34742;BME280;20968;42.696;23.360;2022-10-18T04:55:44;96689.88;;;11.51;67.86
34742;BME280;20968;42.696;23.360;2022-10-18T04:58:10;96685.84;;;11.76;65.36
34742;BME280;20968;42.696;23.360;2022-10-18T05:00:37;96683.59;;;12.05;64.24
34742;BME280;20968;42.696;23.360;2022-10-18T05:03:02;96685.78;;;12.41;63.00
34742;BME280;20968;42.696;23.360;2022-10-18T05:05:27;96671.13;;;12.31;58.81
34742;BME280;20968;42.696;23.360;2022-10-18T05:07:53;96687.56;;;12.35;59.13
34742;BME280;20968;42.696;23.360;2022-10-18T05:10:18;96674.59;;;12.44;58.48
34742;BME280;20968;42.696;23.360;2022-10-18T05:12:44;96666.31;;;12.53;53.44
34742;BME280;20968;42.696;23.360;2022-10-18T05:15:09;96673.75;;;12.35;51.80
34742;BME280;20968;42.696;23.360;2022-10-18T05:17:35;96673.50;;;12.11;51.95
34742;BME280;20968;42.696;23.360;2022-10-18T05:20:00;96685.63;;;11.92;51.77
34742;BME280;20968;42.696;23.360;2022-10-18T05:22:26;96679.88;;;11.78;51.80
34742;BME280;20968;42.696;23.360;2022-10-18T05:24:51;96682.66;;;11.65;52.10
34742;BME280;20968;42.696;23.360;2022-10-18T05:27:17;96675.75;;;11.61;52.32
34742;BME280;20968;42.696;23.360;2022-10-18T05:29:42;96676.44;;;11.53;53.01
34742;BME280;20968;42.696;23.360;2022-10-18T05:32:08;96688.81;;;11.36;52.89
34742;BME280;20968;42.696;23.360;2022-10-18T05:34:33;96692.03;;;11.34;53.17
34742;BME280;20968;42.696;23.360;2022-10-18T05:36:59;96685.16;;;11.05;53.74
34742;BME280;20968;42.696;23.360;2022-10-18T05:39:24;96683.31;;;10.89;53.69
34742;BME280;20968;42.696;23.360;2022-10-18T05:41:50;96689.94;;;10.80;54.68
34742;BME280;20968;42.696;23.360;2022-10-18T05:44:15;96691.69;;;10.74;55.04
34742;BME280;20968;42.696;23.360;2022-10-18T05:46:41;96698.41;;;10.85;54.74
34742;BME280;20968;42.696;23.360;2022-10-18T05:49:06;96692.91;;;10.85;55.19
34742;BME280;20968;42.696;23.360;2022-10-18T05:51:32;96697.97;;;10.86;55.13
34742;BME280;20968;42.696;23.360;2022-10-18T05:53:57;96692.91;;;10.85;55.39
34742;BME280;20968;42.696;23.360;2022-10-18T05:56:23;96694.66;;;10.79;55.38
34742;BME280;20968;42.696;23.360;2022-10-18T05:58:50;96689.59;;;10.78;55.17
34742;BME280;20968;42.696;23.360;2022-10-18T06:01:16;96697.09;;;10.77;55.73
34742;BME280;20968;42.696;23.360;2022-10-18T06:03:41;96699.41;;;10.79;55.64
34742;BME280;20968;42.696;23.360;2022-10-18T06:06:09;96698.19;;;10.80;56.18
34742;BME280;20968;42.696;23.360;2022-10-18T06:08:36;96699.50;;;10.75;56.35
34742;BME280;20968;42.696;23.360;2022-10-18T06:11:10;96698.66;;;10.78;56.14
34742;BME280;20968;42.696;23.360;2022-10-18T06:13:43;96703.59;;;10.95;55.26
34742;BME280;20968;42.696;23.360;2022-10-18T06:16:09;96702.56;;;11.02;55.62
34742;BME280;20968;42.696;23.360;2022-10-18T06:18:35;96687.34;;;11.10;55.04
34742;BME280;20968;42.696;23.360;2022-10-18T06:21:01;96699.19;;;11.32;55.80
34742;BME280;20968;42.696;23.360;2022-10-18T06:23:27;96702.72;;;11.32;55.59
34742;BME280;20968;42.696;23.360;2022-10-18T06:25:53;96699.59;;;11.43;55.45
34742;BME280;20968;42.696;23.360;2022-10-18T06:28:18;96703.00;;;11.47;55.78
34742;BME280;20968;42.696;23.360;2022-10-18T06:30:44;96701.94;;;11.78;66.03
34742;BME280;20968;42.696;23.360;2022-10-18T06:33:09;96682.09;;;12.13;63.98
34742;BME280;20968;42.696;23.360;2022-10-18T06:35:36;96699.00;;;12.85;57.34
34742;BME280;20968;42.696;23.360;2022-10-18T06:38:02;96690.56;;;13.19;60.38
34742;BME280;20968;42.696;23.360;2022-10-18T06:40:28;96693.63;;;13.29;57.19
34742;BME280;20968;42.696;23.360;2022-10-18T06:42:55;96691.84;;;13.71;55.77
34742;BME280;20968;42.696;23.360;2022-10-18T06:45:20;96686.91;;;13.84;54.21
34742;BME280;20968;42.696;23.360;2022-10-18T06:47:46;96699.41;;;14.15;53.53
34742;BME280;20968;42.696;23.360;2022-10-18T06:50:11;96688.00;;;14.22;50.22
34742;BME280;20968;42.696;23.360;2022-10-18T06:52:37;96698.09;;;14.52;53.77
34742;BME280;20968;42.696;23.360;2022-10-18T06:55:02;96691.84;;;14.75;51.50
34742;BME280;20968;42.696;23.360;2022-10-18T06:57:28;96688.13;;;14.78;50.75
34742;BME280;20968;42.696;23.360;2022-10-18T06:59:54;96685.88;;;15.00;49.97
34742;BME280;20968;42.696;23.360;2022-10-18T07:02:19;96680.56;;;14.87;46.86
34742;BME280;20968;42.696;23.360;2022-10-18T07:04:44;96684.66;;;14.60;46.59
34742;BME280;20968;42.696;23.360;2022-10-18T07:07:10;96683.91;;;14.50;47.84
34742;BME280;20968;42.696;23.360;2022-10-18T07:09:35;96690.06;;;14.54;48.09
34742;BME280;20968;42.696;23.360;2022-10-18T07:12:01;96684.75;;;14.33;51.26
34742;BME280;20968;42.696;23.360;2022-10-18T07:14:26;96693.44;;;14.58;49.17
34742;BME280;20968;42.696;23.360;2022-10-18T07:16:52;96692.25;;;14.82;50.92
34742;BME280;20968;42.696;23.360;2022-10-18T07:19:17;96694.84;;;14.95;50.58
34742;BME280;20968;42.696;23.360;2022-10-18T07:21:42;96688.41;;;15.12;48.43
34742;BME280;20968;42.696;23.360;2022-10-18T07:24:08;96691.16;;;14.89;48.05
34742;BME280;20968;42.696;23.360;2022-10-18T07:26:34;96686.69;;;14.91;50.07
34742;BME280;20968;42.696;23.360;2022-10-18T07:29:07;96671.59;;;15.16;49.62
34742;BME280;20968;42.696;23.360;2022-10-18T07:31:34;96682.09;;;15.44;45.57
34742;BME280;20968;42.696;23.360;2022-10-18T07:34:02;96675.44;;;14.86;46.43
34742;BME280;20968;42.696;23.360;2022-10-18T07:36:28;96681.66;;;14.31;47.24
34742;BME280;20968;42.696;23.360;2022-10-18T07:38:54;96667.53;;;14.11;50.06
34742;BME280;20968;42.696;23.360;2022-10-18T07:41:20;96661.34;;;14.07;50.71
34742;BME280;20968;42.696;23.360;2022-10-18T07:43:47;96669.56;;;14.52;50.62
34742;BME280;20968;42.696;23.360;2022-10-18T07:46:15;96662.38;;;14.86;49.74
34742;BME280;20968;42.696;23.360;2022-10-18T07:48:40;96657.34;;;15.32;48.76
34742;BME280;20968;42.696;23.360;2022-10-18T07:51:06;96661.66;;;15.56;48.89
34742;BME280;20968;42.696;23.360;2022-10-18T07:53:32;96660.94;;;15.84;45.73
34742;BME280;20968;42.696;23.360;2022-10-18T07:56:03;96658.78;;;15.51;45.03
34742;BME280;20968;42.696;23.360;2022-10-18T07:58:30;96649.91;;;15.38;45.24
34742;BME280;20968;42.696;23.360;2022-10-18T08:01:00;96649.66;;;15.03;46.34
34742;BME280;20968;42.696;23.360;2022-10-18T08:03:25;96643.34;;;14.71;46.93
34742;BME280;20968;42.696;23.360;2022-10-18T08:05:52;96648.03;;;14.56;47.86
34742;BME280;20968;42.696;23.360;2022-10-18T08:08:19;96638.19;;;14.46;48.69
34742;BME280;20968;42.696;23.360;2022-10-18T08:10:45;96638.63;;;14.53;48.68
34742;BME280;20968;42.696;23.360;2022-10-18T08:13:11;96626.25;;;14.95;51.01
34742;BME280;20968;42.696;23.360;2022-10-18T08:15:36;96629.22;;;15.15;49.67
34742;BME280;20968;42.696;23.360;2022-10-18T08:18:02;96623.47;;;15.28;47.96
34742;BME280;20968;42.696;23.360;2022-10-18T08:20:27;96636.19;;;15.34;46.38
34742;BME280;20968;42.696;23.360;2022-10-18T08:22:54;96625.22;;;15.16;47.16
34742;BME280;20968;42.696;23.360;2022-10-18T08:25:20;96617.63;;;14.93;47.07
34742;BME280;20968;42.696;23.360;2022-10-18T08:27:45;96619.25;;;14.77;47.74
34742;BME280;20968;42.696;23.360;2022-10-18T08:30:11;96601.81;;;14.53;48.44
34742;BME280;20968;42.696;23.360;2022-10-18T08:32:36;96608.00;;;14.48;48.98
34742;BME280;20968;42.696;23.360;2022-10-18T08:35:02;96592.13;;;14.48;49.54
34742;BME280;20968;42.696;23.360;2022-10-18T08:37:27;96598.34;;;14.67;49.96
34742;BME280;20968;42.696;23.360;2022-10-18T08:39:53;96597.16;;;14.59;50.13
34742;BME280;20968;42.696;23.360;2022-10-18T08:45:11;96579.59;;;14.62;49.63
34742;BME280;20968;42.696;23.360;2022-10-18T08:47:48;96588.59;;;14.80;50.46
34742;BME280;20968;42.696;23.360;2022-10-18T08:50:20;96579.03;;;15.04;49.90
34742;BME280;20968;42.696;23.360;2022-10-18T08:52:58;96573.69;;;15.24;49.96
34742;BME280;20968;42.696;23.360;2022-10-18T08:55:54;96566.72;;;15.43;49.50
34742;BME280;20968;42.696;23.360;2022-10-18T08:58:28;96566.28;;;15.59;48.40
34742;BME280;20968;42.696;23.360;2022-10-18T09:22:17;96537.59;;;17.48;45.04
34742;BME280;20968;42.696;23.360;2022-10-18T09:27:19;96527.38;;;17.90;45.33
34742;BME280;20968;42.696;23.360;2022-10-18T09:30:08;96545.03;;;18.32;44.11
34742;BME280;20968;42.696;23.360;2022-10-18T09:32:47;96532.75;;;18.55;44.29
34742;BME280;20968;42.696;23.360;2022-10-18T09:35:22;96536.00;;;18.84;43.47
34742;BME280;20968;42.696;23.360;2022-10-18T09:37:52;96526.44;;;19.02;43.11
34742;BME280;20968;42.696;23.360;2022-10-18T09:40:32;96527.09;;;19.33;42.72
34742;BME280;20968;42.696;23.360;2022-10-18T09:43:02;96521.09;;;19.56;42.96
34742;BME280;20968;42.696;23.360;2022-10-18T09:45:42;96517.09;;;19.85;41.74
34742;BME280;20968;42.696;23.360;2022-10-18T09:48:12;96519.91;;;19.85;40.41
34742;BME280;20968;42.696;23.360;2022-10-18T09:50:44;96512.56;;;19.98;41.77
34742;BME280;20968;42.696;23.360;2022-10-18T09:53:26;96502.41;;;20.17;40.49
34742;BME280;20968;42.696;23.360;2022-10-18T09:56:04;96498.31;;;20.40;40.92
34742;BME280;20968;42.696;23.360;2022-10-18T09:58:45;96494.47;;;20.76;39.51
34742;BME280;20968;42.696;23.360;2022-10-18T10:01:18;96498.53;;;20.86;39.48
34742;BME280;20968;42.696;23.360;2022-10-18T10:03:45;96485.97;;;21.09;37.81
34742;BME280;20968;42.696;23.360;2022-10-18T10:08:40;96481.63;;;21.13;38.38
34742;BME280;20968;42.696;23.360;2022-10-18T10:11:37;96472.84;;;21.38;38.58
34742;BME280;20968;42.696;23.360;2022-10-18T10:14:15;96477.59;;;21.60;37.66
34742;BME280;20968;42.696;23.360;2022-10-18T10:17:01;96469.16;;;22.00;36.33
34742;BME280;20968;42.696;23.360;2022-10-18T10:19:31;96455.53;;;22.15;34.49
34742;BME280;20968;42.696;23.360;2022-10-18T10:22:09;96451.75;;;22.07;35.36
34742;BME280;20968;42.696;23.360;2022-10-18T10:31:27;96433.81;;;22.92;31.09
34742;BME280;20968;42.696;23.360;2022-10-18T10:34:12;96436.06;;;22.75;30.72
34742;BME280;20968;42.696;23.360;2022-10-18T10:36:50;96421.44;;;22.59;30.26
34742;BME280;20968;42.696;23.360;2022-10-18T10:39:19;96427.16;;;22.72;30.76
34742;BME280;20968;42.696;23.360;2022-10-18T10:41:55;96418.94;;;22.97;30.45
34742;BME280;20968;42.696;23.360;2022-10-18T10:44:27;96410.50;;;22.97;29.41
34742;BME280;20968;42.696;23.360;2022-10-18T10:46:53;96401.16;;;22.89;28.74
34742;BME280;20968;42.696;23.360;2022-10-18T10:49:24;96399.78;;;22.77;30.16
34742;BME280;20968;42.696;23.360;2022-10-18T10:51:55;96381.16;;;22.74;28.31
34742;BME280;20968;42.696;23.360;2022-10-18T10:54:23;96392.94;;;22.73;28.03
34742;BME280;20968;42.696;23.360;2022-10-18T10:59:48;96378.47;;;23.24;27.29
34742;BME280;20968;42.696;23.360;2022-10-18T11:02:35;96380.38;;;23.16;27.19
34742;BME280;20968;42.696;23.360;2022-10-18T11:05:24;96367.28;;;23.55;27.42
34742;BME280;20968;42.696;23.360;2022-10-18T11:07:54;96351.06;;;23.80;27.14
34742;BME280;20968;42.696;23.360;2022-10-18T11:10:24;96357.34;;;23.86;26.29
34742;BME280;20968;42.696;23.360;2022-10-18T11:15:58;96357.88;;;23.84;26.66
34742;BME280;20968;42.696;23.360;2022-10-18T11:18:32;96346.81;;;24.31;25.86
34742;BME280;20968;42.696;23.360;2022-10-18T11:21:01;96344.81;;;24.70;25.87
34742;BME280;20968;42.696;23.360;2022-10-18T11:23:33;96332.09;;;24.37;24.58
34742;BME280;20968;42.696;23.360;2022-10-18T11:42:58;96307.47;;;24.12;23.39
34742;BME280;20968;42.696;23.360;2022-10-18T11:48:29;96289.63;;;24.74;22.56
34742;BME280;20968;42.696;23.360;2022-10-18T11:54:23;96277.69;;;24.81;22.03
34742;BME280;20968;42.696;23.360;2022-10-18T11:59:51;96269.81;;;25.13;21.92
34742;BME280;20968;42.696;23.360;2022-10-18T12:02:39;96262.88;;;25.01;21.27
34742;BME280;20968;42.696;23.360;2022-10-18T12:05:10;96255.91;;;25.15;22.86
34742;BME280;20968;42.696;23.360;2022-10-18T12:08:03;96256.16;;;25.37;22.37
34742;BME280;20968;42.696;23.360;2022-10-18T12:10:29;96248.72;;;24.81;19.61
34742;BME280;20968;42.696;23.360;2022-10-18T12:12:59;96247.91;;;24.60;18.71
34742;BME280;20968;42.696;23.360;2022-10-18T12:15:28;96232.66;;;24.42;18.99
34742;BME280;20968;42.696;23.360;2022-10-18T12:18:09;96228.75;;;24.45;19.16
34742;BME280;20968;42.696;23.360;2022-10-18T12:20:41;96236.09;;;24.61;18.93
34742;BME280;20968;42.696;23.360;2022-10-18T12:23:15;96223.75;;;24.26;20.16
34742;BME280;20968;42.696;23.360;2022-10-18T12:25:52;96217.03;;;24.16;19.68
34742;BME280;20968;42.696;23.360;2022-10-18T12:31:44;96219.66;;;24.14;19.08
34742;BME280;20968;42.696;23.360;2022-10-18T12:37:15;96219.53;;;24.06;18.70
34742;BME280;20968;42.696;23.360;2022-10-18T12:39:48;96213.59;;;24.10;19.18
34742;BME280;20968;42.696;23.360;2022-10-18T12:42:19;96204.81;;;24.26;19.63
34742;BME280;20968;42.696;23.360;2022-10-18T12:44:48;96203.50;;;24.40;19.41
34742;BME280;20968;42.696;23.360;2022-10-18T12:51:22;96196.47;;;24.80;20.22
34742;BME280;20968;42.696;23.360;2022-10-18T12:57:27;96190.03;;;24.92;19.28
34742;BME280;20968;42.696;23.360;2022-10-18T13:16:29;96180.72;;;24.84;19.37
34742;BME280;20968;42.696;23.360;2022-10-18T13:21:59;96166.16;;;24.93;19.02
34742;BME280;20968;42.696;23.360;2022-10-18T13:30:04;96156.34;;;25.07;19.30
34742;BME280;20968;42.696;23.360;2022-10-18T13:32:54;96162.28;;;24.83;19.49
34742;BME280;20968;42.696;23.360;2022-10-18T13:35:51;96157.50;;;24.71;19.00
34742;BME280;20968;42.696;23.360;2022-10-18T13:41:04;96154.44;;;24.69;18.91
34742;BME280;20968;42.696;23.360;2022-10-18T13:55:18;96128.97;;;24.74;19.72
34742;BME280;20968;42.696;23.360;2022-10-18T14:11:13;96127.03;;;24.90;20.62
34742;BME280;20968;42.696;23.360;2022-10-18T14:13:47;96123.78;;;24.65;19.41
34742;BME280;20968;42.696;23.360;2022-10-18T14:16:35;96118.38;;;24.67;19.68
34742;BME280;20968;42.696;23.360;2022-10-18T14:19:57;96121.69;;;24.79;19.74
34742;BME280;20968;42.696;23.360;2022-10-18T14:24:49;96115.91;;;24.64;19.67
34742;BME280;20968;42.696;23.360;2022-10-18T14:29:42;96111.25;;;24.53;20.29
34742;BME280;20968;42.696;23.360;2022-10-18T14:32:19;96113.19;;;24.58;20.47
34742;BME280;20968;42.696;23.360;2022-10-18T14:34:46;96117.66;;;24.54;20.36
34742;BME280;20968;42.696;23.360;2022-10-18T14:37:24;96118.88;;;24.33;20.75
34742;BME280;20968;42.696;23.360;2022-10-18T14:39:50;96097.72;;;24.06;20.14
34742;BME280;20968;42.696;23.360;2022-10-18T14:42:23;96107.59;;;23.99;20.57
34742;BME280;20968;42.696;23.360;2022-10-18T14:44:49;96093.53;;;23.60;20.13
34742;BME280;20968;42.696;23.360;2022-10-18T14:47:20;96097.97;;;23.43;19.38
34742;BME280;20968;42.696;23.360;2022-10-18T14:49:46;96091.47;;;23.35;20.65
34742;BME280;20968;42.696;23.360;2022-10-18T14:52:18;96083.91;;;23.30;20.79
34742;BME280;20968;42.696;23.360;2022-10-18T14:54:45;96088.22;;;23.18;20.56
34742;BME280;20968;42.696;23.360;2022-10-18T14:57:21;96089.13;;;22.95;20.88
34742;BME280;20968;42.696;23.360;2022-10-18T14:59:50;96074.47;;;22.71;20.90
34742;BME280;20968;42.696;23.360;2022-10-18T15:02:25;96079.09;;;22.37;20.80
34742;BME280;20968;42.696;23.360;2022-10-18T15:05:05;96082.03;;;22.26;21.49
34742;BME280;20968;42.696;23.360;2022-10-18T15:07:31;96078.03;;;22.03;21.79
34742;BME280;20968;42.696;23.360;2022-10-18T15:09:58;96081.63;;;21.85;22.02
34742;BME280;20968;42.696;23.360;2022-10-18T15:12:25;96074.84;;;21.75;22.22
34742;BME280;20968;42.696;23.360;2022-10-18T15:14:53;96072.91;;;21.46;23.00
34742;BME280;20968;42.696;23.360;2022-10-18T15:17:27;96062.28;;;21.15;23.98
34742;BME280;20968;42.696;23.360;2022-10-18T15:20:17;96068.78;;;21.05;25.41
34742;BME280;20968;42.696;23.360;2022-10-18T15:22:43;96062.94;;;20.74;26.60
34742;BME280;20968;42.696;23.360;2022-10-18T15:25:21;96067.66;;;20.60;27.56
34742;BME280;20968;42.696;23.360;2022-10-18T15:27:53;96054.00;;;20.51;27.64
34742;BME280;20968;42.696;23.360;2022-10-18T15:30:23;96045.16;;;20.07;29.13
34742;BME280;20968;42.696;23.360;2022-10-18T15:32:54;96061.50;;;19.92;29.62
34742;BME280;20968;42.696;23.360;2022-10-18T15:35:27;96063.34;;;19.79;30.25
34742;BME280;20968;42.696;23.360;2022-10-18T15:37:54;96054.53;;;19.64;30.68
34742;BME280;20968;42.696;23.360;2022-10-18T15:42:48;96059.94;;;19.56;30.85
34742;BME280;20968;42.696;23.360;2022-10-18T15:51:02;96054.91;;;19.39;31.46
34742;BME280;20968;42.696;23.360;2022-10-18T15:53:43;96053.19;;;19.36;31.75
34742;BME280;20968;42.696;23.360;2022-10-18T15:56:34;96071.44;;;19.37;31.66
34742;BME280;20968;42.696;23.360;2022-10-18T15:59:23;96070.72;;;19.25;31.72